Terminal Aerodrome Forecast
Issued by NWS

Home | Current Version | Previous Version | Graphics & Text | Print | Product List | Glossary On
Versions: 1 2 3 4 5 6 7 8 9 10 11 12 13 14 15
132
FTUS43 KGRB 301727
TAFATW
TAF
KATW 301727Z 3018/0118 22006KT P6SM BKN013 OVC028
     FM010000 24004KT 6SM -RA BR OVC013
     FM010200 25005KT 5SM -RA BR OVC007
     FM010700 27007KT 5SM -RASN BR OVC008
     FM011400 28011KT P6SM -SN BKN012 OVC035=

USA.gov is the U.S. government's official web portal to all federal, state and local government web resources and services.